Luray, Indiana
Current Conditions -  °F | °C
As of 8:04 AM on Saturday 25 Oct 2014 (Local Time) from KMIE Reporting Station
Overcast Overcast  
Wind Chill: 57°   Ceiling: 2700
Heat Index: 57°   Visibility: 10mi
Dew Point: 51°   Wind: 8mph
Humidity: 81%   Direction: 240°WSW
Pressure: 29.95"   Gusts: NA
Location:  40.0191°N, 85.354°W
Report Text: KMIE 251204Z 24007KT 10SM BKN027 OVC035 14/11 A2995 RMK AO2 T01390106
Loading
Personal Weather Stations






























Interactive Weather Map
Tropical Storm Tracking
New forecast layout! Learn more

10-Day Weather Forecast

Advertisements
Track Severe Weather on mobile